8TN1 weather

Parker Airport
Eads, Tennessee, United States

Public forecast

Using degrees Fahrenheit for public forecast. Weather courtesy of forecast.io.

METAR (pilot weather report)

Closest report is Olive Branch Airport, 15.3 nm (28.2 km) SSW. Retrieved 2019/06/19 15:50 UTC (14 minutes ago):

KOLV 191550Z 22010KT 10SM FEW045 SCT080 BKN250 29/24 A2982

TAF (pilot weather forecast)

Closest forecast is Memphis International Airport, 19.5 nm (36.1 km) WSW. Retrieved 2019/06/19 12:30 UTC (4 hours ago):

TAF KMEM 191128Z 1912/2018 19006KT P6SM SCT090 BKN250 FM191800 22012G18KT P6SM VCSH SCT040 BKN150 FM200000 20012G18KT P6SM VCTS SCT045CB BKN120 TEMPO 2003/2007 VRB15G30KT 1SM +TSRA OVC030CB FM200900 22009KT P6SM SCT030 BKN250